createdAt,value
2022-11-28T00:00:55.704Z,1.40
2022-11-28T00:06:09.665Z,1.30
2022-11-28T00:11:12.501Z,1.40
2022-11-28T00:16:15.306Z,1.50
2022-11-28T00:21:18.588Z,1.50
2022-11-28T00:26:21.315Z,1.40
2022-11-28T00:31:24.472Z,1.30
2022-11-28T00:36:27.192Z,1.20
2022-11-28T00:41:30.299Z,1.30
2022-11-28T00:46:33.011Z,1.20
2022-11-28T00:51:35.768Z,1.20
2022-11-28T00:56:38.407Z,1.40
2022-11-28T01:01:41.301Z,1.40
2022-11-28T01:06:44.116Z,1.70
2022-11-28T01:11:46.880Z,1.40
2022-11-28T01:16:49.614Z,1.20
2022-11-28T01:21:52.431Z,0.90
2022-11-28T01:26:55.183Z,1.00
2022-11-28T01:31:58.671Z,1.00
2022-11-28T01:37:01.324Z,1.00
2022-11-28T01:42:04.049Z,0.90
2022-11-28T01:47:07.218Z,1.00
2022-11-28T01:52:09.935Z,1.10
2022-11-28T01:57:12.559Z,1.10
2022-11-28T02:02:15.246Z,1.30
2022-11-28T02:07:18.034Z,0.90
2022-11-28T02:12:20.777Z,0.90
2022-11-28T02:17:23.418Z,1.00
2022-11-28T02:22:26.146Z,1.20
2022-11-28T02:27:28.881Z,1.30
2022-11-28T02:32:34.112Z,1.30
2022-11-28T02:37:36.722Z,1.10
2022-11-28T02:42:39.728Z,1.30
2022-11-28T02:47:42.441Z,1.20
2022-11-28T02:52:45.025Z,1.20
2022-11-28T02:57:47.813Z,1.20
2022-11-28T03:02:50.433Z,1.20
2022-11-28T03:07:53.154Z,1.00
2022-11-28T03:12:55.841Z,1.00
2022-11-28T03:17:58.524Z,1.00
2022-11-28T03:23:01.133Z,1.10
2022-11-28T03:28:03.690Z,1.10
2022-11-28T03:33:06.277Z,1.00
2022-11-28T03:38:08.906Z,1.00
2022-11-28T03:43:15.513Z,1.00
2022-11-28T03:48:18.188Z,0.90
2022-11-28T03:53:20.786Z,1.10
2022-11-28T03:58:23.426Z,1.00
2022-11-28T04:03:26.145Z,0.90
2022-11-28T04:08:28.882Z,0.90
2022-11-28T04:13:31.463Z,0.90
2022-11-28T04:18:34.121Z,0.90
2022-11-28T04:23:36.725Z,1.10
2022-11-28T04:28:39.774Z,1.10
2022-11-28T04:33:42.812Z,1.20
2022-11-28T04:38:49.393Z,1.20
2022-11-28T04:43:52.037Z,1.40
2022-11-28T04:48:55.242Z,1.30
2022-11-28T04:53:57.856Z,1.40
2022-11-28T04:59:00.463Z,1.30
2022-11-28T05:04:03.224Z,1.40
2022-11-28T05:09:05.846Z,1.40
2022-11-28T05:14:08.473Z,1.40
2022-11-28T05:19:21.088Z,1.20
2022-11-28T05:24:27.956Z,1.20
2022-11-28T05:29:33.401Z,1.20
2022-11-28T05:34:36.085Z,1.40
2022-11-28T05:39:38.700Z,1.50
2022-11-28T05:44:41.389Z,1.40
2022-11-28T05:49:45.674Z,1.40
2022-11-28T05:54:49.400Z,1.40
2022-11-28T05:59:52.085Z,1.50
2022-11-28T06:04:55.021Z,1.50
2022-11-28T06:09:57.720Z,1.50
2022-11-28T06:15:00.327Z,1.60
2022-11-28T06:20:02.968Z,1.60
2022-11-28T06:25:05.601Z,1.60
2022-11-28T06:30:08.668Z,1.60
2022-11-28T06:35:11.673Z,1.70
2022-11-28T06:40:14.444Z,1.70
2022-11-28T06:45:17.087Z,1.80
2022-11-28T06:50:19.693Z,1.90
2022-11-28T06:55:22.389Z,2.00
2022-11-28T07:00:24.997Z,2.10
2022-11-28T07:05:27.820Z,2.20
2022-11-28T07:10:30.451Z,2.40
2022-11-28T07:15:33.151Z,2.50
2022-11-28T07:20:38.170Z,2.50
2022-11-28T07:25:40.772Z,2.70
2022-11-28T07:30:43.455Z,2.80
2022-11-28T07:35:46.070Z,2.90
2022-11-28T07:40:48.673Z,3.00
2022-11-28T07:46:01.099Z,3.00
2022-11-28T07:51:07.139Z,3.10
2022-11-28T07:56:09.757Z,3.20
2022-11-28T08:01:12.376Z,3.30
2022-11-28T08:06:15.007Z,3.50
2022-11-28T08:11:17.617Z,3.60
2022-11-28T08:16:21.513Z,3.60
2022-11-28T08:21:24.340Z,3.70
2022-11-28T08:26:30.432Z,3.90
2022-11-28T08:31:33.556Z,4.00
2022-11-28T08:36:36.540Z,4.10
2022-11-28T08:41:39.340Z,4.20
2022-11-28T08:46:42.249Z,4.30
2022-11-28T08:51:44.857Z,4.30
2022-11-28T08:56:47.473Z,4.30
2022-11-28T09:01:50.099Z,4.40
2022-11-28T09:06:53.079Z,4.50
2022-11-28T09:11:55.679Z,4.70
2022-11-28T09:16:58.516Z,4.70
2022-11-28T09:22:01.209Z,4.70
2022-11-28T09:27:03.902Z,4.70
2022-11-28T09:32:06.611Z,4.70
2022-11-28T09:37:09.824Z,4.70
2022-11-28T09:42:12.625Z,5.00
2022-11-28T09:47:15.235Z,5.10
2022-11-28T09:52:17.944Z,5.40
2022-11-28T09:57:20.571Z,5.30
2022-11-28T10:02:23.430Z,5.60
2022-11-28T10:07:26.169Z,5.90
2022-11-28T10:12:28.851Z,5.90
2022-11-28T10:17:31.519Z,5.90
2022-11-28T10:22:34.158Z,5.90
2022-11-28T10:27:37.213Z,6.00
2022-11-28T10:32:39.945Z,6.10
2022-11-28T10:37:44.166Z,6.40
2022-11-28T10:42:46.924Z,6.60
2022-11-28T21:40:33.204Z,5.10
2022-11-28T21:45:35.858Z,5.20
2022-11-28T21:50:38.781Z,5.30
2022-11-28T21:55:41.520Z,5.40
2022-11-28T22:00:55.542Z,5.50
2022-11-28T22:05:58.731Z,5.50
2022-11-28T22:11:04.258Z,5.50
2022-11-28T22:16:07.442Z,5.50
2022-11-28T22:21:49.484Z,5.60
2022-11-28T22:31:36.193Z,5.70
2022-11-28T22:36:38.968Z,5.70
2022-11-28T22:41:41.551Z,5.70
2022-11-28T22:46:44.205Z,5.80
2022-11-28T22:51:46.850Z,5.80
2022-11-28T22:56:49.495Z,5.70
2022-11-28T23:01:52.309Z,5.80
2022-11-28T23:06:55.125Z,5.80
2022-11-28T23:11:58.630Z,5.80
2022-11-28T23:17:01.378Z,5.80
2022-11-28T23:22:04.619Z,5.80
2022-11-28T23:27:07.372Z,5.80
2022-11-28T23:32:10.107Z,5.80
2022-11-28T23:37:12.821Z,5.80
2022-11-28T23:42:15.463Z,5.80
2022-11-28T23:47:18.368Z,5.80
2022-11-28T23:52:21.001Z,5.80
2022-11-28T23:57:23.757Z,5.90
